Time;durP1;ratioP1;P1;durP2;ratioP2;P2;SDS_P1;SDS_P2;PMS_P1;PMS_P2;Temp;Humidity;BMP_temperature;BMP_pressure;BME280_temperature;BME280_humidity;BME280_pressure;Samples;Min_cycle;Max_cycle;Signal;HPM_P1;HPM_P2
2023/08/02 00:02:11;;;;;;;4.65;2.55;;;14.20;99.90;;;;;;5115142;28;20119;-94
2023/08/02 00:04:37;;;;;;;6.70;2.03;;;14.20;99.90;;;;;;5114672;28;20031;-94
2023/08/02 00:07:03;;;;;;;4.60;2.03;;;14.20;99.90;;;;;;5114781;28;20024;-93
2023/08/02 00:09:29;;;;;;;5.35;2.13;;;14.20;99.90;;;;;;5114986;28;20023;-94
2023/08/02 00:11:55;;;;;;;9.93;2.88;;;14.20;99.90;;;;;;5115631;28;20364;-94
2023/08/02 00:14:21;;;;;;;5.80;2.20;;;14.20;99.90;;;;;;5114449;28;20096;-94
2023/08/02 00:16:47;;;;;;;9.32;2.60;;;14.30;99.90;;;;;;5115742;28;20015;-92
2023/08/02 00:19:12;;;;;;;4.90;2.47;;;14.30;99.90;;;;;;5115589;28;20026;-95
2023/08/02 00:21:38;;;;;;;9.45;3.20;;;14.30;99.90;;;;;;5115946;28;20265;-91
2023/08/02 00:24:04;;;;;;;6.50;2.60;;;14.20;99.90;;;;;;5112772;28;20106;-94
2023/08/02 00:26:29;;;;;;;10.40;2.53;;;14.30;99.90;;;;;;5103768;28;20080;-93
2023/08/02 00:28:55;;;;;;;8.88;3.45;;;14.30;99.90;;;;;;5105507;28;20032;-93
2023/08/02 00:31:21;;;;;;;7.88;2.80;;;14.30;99.90;;;;;;5105386;28;20023;-94
2023/08/02 00:33:46;;;;;;;7.60;2.85;;;14.30;99.90;;;;;;5102856;28;20497;-94
2023/08/02 00:36:12;;;;;;;9.52;2.85;;;14.30;99.90;;;;;;5107889;28;20030;-93
2023/08/02 00:38:38;;;;;;;8.40;2.78;;;14.30;99.90;;;;;;5106658;28;20048;-94
2023/08/02 00:41:05;;;;;;;10.52;3.17;;;14.30;99.90;;;;;;5100970;28;20043;-93
2023/08/02 00:43:41;;;;;;;6.00;2.80;;;14.30;99.90;;;;;;5106095;28;20027;-94
2023/08/02 00:46:12;;;;;;;7.68;2.75;;;14.30;99.90;;;;;;5107710;28;20103;-93
2023/08/02 00:48:38;;;;;;;11.27;3.35;;;14.30;99.90;;;;;;5104735;28;20485;-94
2023/08/02 00:51:08;;;;;;;6.07;2.90;;;14.30;99.90;;;;;;5106144;28;20355;-93
2023/08/02 00:53:35;;;;;;;7.57;2.90;;;14.30;99.90;;;;;;5104489;28;20096;-94
2023/08/02 00:56:02;;;;;;;7.05;3.22;;;14.30;99.90;;;;;;5143662;27;20028;-93
2023/08/02 00:58:27;;;;;;;6.68;3.20;;;14.20;99.90;;;;;;5104964;28;20096;-93
2023/08/02 01:00:53;;;;;;;11.57;3.13;;;14.20;99.90;;;;;;5100947;28;20474;-94
2023/08/02 01:03:19;;;;;;;9.55;3.05;;;14.20;99.90;;;;;;5092893;28;20036;-94
2023/08/02 01:05:56;;;;;;;7.22;2.65;;;14.20;99.90;;;;;;5101612;28;20016;-91
2023/08/02 01:08:35;;;;;;;9.00;2.90;;;14.20;99.90;;;;;;5098818;28;20028;-93
2023/08/02 01:11:35;;;;;;;12.30;3.40;;;14.20;99.90;;;;;;5095142;28;20073;-92
2023/08/02 01:14:04;;;;;;;11.45;3.08;;;14.20;99.90;;;;;;5088973;28;20028;-93
2023/08/02 01:16:32;;;;;;;7.15;2.90;;;14.20;99.90;;;;;;5093747;28;20020;-93
2023/08/02 01:19:07;;;;;;;15.20;3.97;;;14.20;99.90;;;;;;5092566;28;20024;-92
2023/08/02 01:21:33;;;;;;;9.40;3.13;;;14.20;99.90;;;;;;5092739;28;20028;-92
2023/08/02 01:23:58;;;;;;;5.97;2.58;;;14.20;99.90;;;;;;5092948;28;20028;-94
2023/08/02 01:26:26;;;;;;;8.43;3.65;;;14.10;99.90;;;;;;5096425;28;20439;-93
2023/08/02 01:28:54;;;;;;;6.97;2.60;;;14.10;99.90;;;;;;5131069;27;20086;-95
2023/08/02 01:31:21;;;;;;;4.30;2.50;;;14.00;99.90;;;;;;5098004;28;20091;-95
2023/08/02 01:33:50;;;;;;;8.57;2.80;;;14.00;99.90;;;;;;5096732;28;20413;-95
2023/08/02 01:36:17;;;;;;;7.82;2.50;;;14.00;99.90;;;;;;5094457;28;20016;-96
2023/08/02 01:38:42;;;;;;;8.15;2.80;;;13.90;99.90;;;;;;5094378;28;20110;-94
2023/08/02 01:41:08;;;;;;;9.30;2.35;;;13.90;99.90;;;;;;5094395;28;20133;-94
2023/08/02 01:43:34;;;;;;;8.82;2.38;;;13.90;99.90;;;;;;5133694;27;20057;-95
2023/08/02 01:45:59;;;;;;;9.48;2.83;;;13.90;99.90;;;;;;5102753;28;20028;-96
2023/08/02 01:48:26;;;;;;;6.68;2.30;;;13.90;99.90;;;;;;5092470;28;20024;-96
2023/08/02 01:50:52;;;;;;;7.75;2.22;;;13.90;99.90;;;;;;5092175;28;20046;-95
2023/08/02 01:53:18;;;;;;;8.77;2.47;;;13.90;99.90;;;;;;5093511;28;20046;-95
2023/08/02 01:55:44;;;;;;;5.55;2.08;;;13.80;99.90;;;;;;5130667;27;20032;-95
2023/08/02 01:58:09;;;;;;;8.05;2.60;;;13.80;99.90;;;;;;5094210;28;20024;-94
2023/08/02 02:00:35;;;;;;;6.13;2.17;;;13.80;99.90;;;;;;5096311;28;20118;-95
2023/08/02 02:03:01;;;;;;;6.35;2.55;;;13.80;99.90;;;;;;5101801;28;20031;-95
2023/08/02 02:05:27;;;;;;;5.93;2.38;;;13.80;99.90;;;;;;5100976;28;20036;-94
2023/08/02 02:07:52;;;;;;;5.20;2.17;;;13.80;99.90;;;;;;5100692;28;20036;-94
2023/08/02 02:10:18;;;;;;;4.80;2.20;;;13.80;99.90;;;;;;5098191;28;20032;-95
2023/08/02 02:12:43;;;;;;;5.75;2.38;;;13.70;99.90;;;;;;5130937;27;20028;-94
2023/08/02 02:15:09;;;;;;;11.23;2.70;;;13.70;99.90;;;;;;5096643;28;20020;-96
2023/08/02 02:17:35;;;;;;;9.40;2.17;;;13.70;99.90;;;;;;5097088;28;20485;-96
2023/08/02 02:20:01;;;;;;;9.68;2.08;;;13.60;99.90;;;;;;5096872;28;20021;-95
2023/08/02 02:22:26;;;;;;;10.00;2.13;;;13.60;99.90;;;;;;5092810;28;20039;-95
2023/08/02 02:24:52;;;;;;;11.38;2.80;;;13.60;99.90;;;;;;5094022;28;20028;-95
2023/08/02 02:27:17;;;;;;;6.78;2.47;;;13.60;99.90;;;;;;5130311;27;20105;-96
2023/08/02 02:29:43;;;;;;;9.13;2.40;;;13.60;99.90;;;;;;5094113;28;20050;-96
2023/08/02 02:32:09;;;;;;;6.68;2.42;;;13.50;99.90;;;;;;5095645;28;20066;-95
2023/08/02 02:34:34;;;;;;;5.80;2.22;;;13.50;99.90;;;;;;5093876;28;20031;-96
2023/08/02 02:37:00;;;;;;;6.07;2.22;;;13.40;99.90;;;;;;5094411;28;20024;-96
2023/08/02 02:39:26;;;;;;;4.28;2.13;;;13.50;99.90;;;;;;5099893;28;20054;-94
2023/08/02 02:41:52;;;;;;;9.40;2.35;;;13.40;99.90;;;;;;5099864;28;20036;-94
2023/08/02 02:44:17;;;;;;;10.57;2.50;;;13.40;99.90;;;;;;5138371;27;20031;-95
2023/08/02 02:46:43;;;;;;;4.93;2.25;;;13.40;99.90;;;;;;5106426;28;20096;-96
2023/08/02 02:49:09;;;;;;;8.88;2.55;;;13.40;99.90;;;;;;5106940;28;20038;-95
2023/08/02 02:51:34;;;;;;;7.38;2.40;;;13.40;99.90;;;;;;5127699;28;20036;-95
2023/08/02 02:54:00;;;;;;;5.00;2.00;;;13.40;99.90;;;;;;5107781;28;20028;-94
2023/08/02 02:56:25;;;;;;;3.20;1.80;;;13.40;99.90;;;;;;5105030;28;20024;-96
2023/08/02 02:58:51;;;;;;;4.05;1.58;;;13.40;99.90;;;;;;5097952;28;20067;-95
2023/08/02 03:01:17;;;;;;;6.18;1.55;;;13.40;99.90;;;;;;5096421;28;20025;-94
2023/08/02 03:03:42;;;;;;;3.75;1.45;;;13.40;99.90;;;;;;5092721;28;20028;-96
2023/08/02 03:06:08;;;;;;;2.50;1.40;;;13.40;99.90;;;;;;5092496;28;20020;-96
2023/08/02 03:08:34;;;;;;;2.08;1.27;;;13.40;99.90;;;;;;5128255;27;20060;-93
2023/08/02 03:10:59;;;;;;;3.33;1.23;;;13.40;99.90;;;;;;5098153;28;20036;-93
2023/08/02 03:13:25;;;;;;;1.70;0.98;;;13.40;99.90;;;;;;5096962;28;20031;-95
2023/08/02 03:15:51;;;;;;;1.25;1.00;;;13.40;99.90;;;;;;5101698;28;20026;-95
2023/08/02 03:18:16;;;;;;;1.85;1.13;;;13.40;99.90;;;;;;5108817;28;20126;-95
2023/08/02 03:20:42;;;;;;;3.53;1.02;;;13.40;99.90;;;;;;5097072;28;20019;-95
2023/08/02 03:23:09;;;;;;;3.15;1.20;;;13.40;99.90;;;;;;5096190;28;20038;-92
2023/08/02 03:25:35;;;;;;;2.28;1.17;;;13.40;99.90;;;;;;5129818;27;20024;-96
2023/08/02 03:28:01;;;;;;;3.10;1.50;;;13.40;99.90;;;;;;5096604;28;20056;-93
2023/08/02 03:30:26;;;;;;;2.75;1.17;;;13.50;99.90;;;;;;5099438;28;20035;-95
2023/08/02 03:32:52;;;;;;;2.15;1.13;;;13.50;99.90;;;;;;5095506;28;20115;-95
2023/08/02 03:35:18;;;;;;;2.58;1.23;;;13.50;99.90;;;;;;5095836;28;20074;-94
2023/08/02 03:37:43;;;;;;;3.47;1.10;;;13.50;99.90;;;;;;5095235;28;20396;-94
2023/08/02 03:40:10;;;;;;;2.88;1.48;;;13.50;99.90;;;;;;5129624;27;20588;-93
2023/08/02 03:42:35;;;;;;;1.85;1.30;;;13.50;99.90;;;;;;5095028;28;20123;-95
2023/08/02 03:45:02;;;;;;;3.67;1.52;;;13.50;99.90;;;;;;5095722;28;20067;-94
2023/08/02 03:47:28;;;;;;;3.47;1.35;;;13.50;99.90;;;;;;5095311;28;20115;-94
2023/08/02 03:49:54;;;;;;;2.30;1.25;;;13.50;99.90;;;;;;5095187;28;20081;-93
2023/08/02 03:52:19;;;;;;;1.88;1.02;;;13.50;99.90;;;;;;5095782;28;20048;-93
2023/08/02 03:54:45;;;;;;;3.67;1.20;;;13.50;99.90;;;;;;5128656;27;20085;-94
2023/08/02 03:57:11;;;;;;;4.88;1.23;;;13.60;99.90;;;;;;5094713;28;20081;-94
2023/08/02 03:59:36;;;;;;;2.03;1.05;;;13.50;99.90;;;;;;5096412;28;20432;-93
2023/08/02 04:02:02;;;;;;;2.95;1.30;;;13.50;99.90;;;;;;5094444;28;20062;-94
2023/08/02 04:04:28;;;;;;;1.70;1.08;;;13.50;99.90;;;;;;5094474;28;20028;-94
2023/08/02 04:06:53;;;;;;;1.85;1.10;;;13.50;99.90;;;;;;5094699;28;20434;-92
2023/08/02 04:09:19;;;;;;;1.58;0.60;;;13.60;99.90;;;;;;5094356;28;20020;-96
2023/08/02 04:11:45;;;;;;;0.60;0.50;;;13.60;99.90;;;;;;5128676;27;20542;-94
2023/08/02 04:14:10;;;;;;;1.13;0.77;;;13.50;99.90;;;;;;5094302;28;20465;-94
2023/08/02 04:16:36;;;;;;;0.70;0.70;;;13.50;99.90;;;;;;5093707;28;20024;-93
2023/08/02 04:19:01;;;;;;;0.63;0.45;;;13.50;99.90;;;;;;5095018;28;20055;-93
2023/08/02 04:21:27;;;;;;;0.70;0.50;;;13.50;99.90;;;;;;5094968;28;20078;-95
2023/08/02 04:23:53;;;;;;;0.73;0.60;;;13.40;99.90;;;;;;5094236;28;20024;-94
2023/08/02 04:26:19;;;;;;;1.10;0.63;;;13.50;99.90;;;;;;5129145;27;20032;-94
2023/08/02 04:28:46;;;;;;;0.32;0.32;;;13.50;99.90;;;;;;5095546;28;20020;-94
2023/08/02 04:31:12;;;;;;;0.30;0.30;;;13.40;99.90;;;;;;5098278;28;20023;-95
2023/08/02 04:33:38;;;;;;;2.47;0.30;;;13.50;99.90;;;;;;5104635;28;20032;-94
2023/08/02 04:36:04;;;;;;;0.77;0.38;;;13.40;99.90;;;;;;5095636;28;20070;-95
2023/08/02 04:38:29;;;;;;;0.38;0.20;;;13.50;99.90;;;;;;5094249;28;20036;-95
2023/08/02 04:40:57;;;;;;;0.32;0.32;;;13.40;99.90;;;;;;5096101;28;20059;-94
2023/08/02 04:43:23;;;;;;;0.32;0.20;;;13.40;99.90;;;;;;5094277;28;20086;-94
2023/08/02 04:45:48;;;;;;;0.20;0.20;;;13.40;99.90;;;;;;5093775;28;20020;-94
2023/08/02 04:48:14;;;;;;;0.10;0.10;;;13.40;99.90;;;;;;5094517;28;20028;-93
2023/08/02 04:50:40;;;;;;;0.10;0.10;;;13.40;99.90;;;;;;5128056;27;20024;-94
2023/08/02 04:53:06;;;;;;;1.58;0.10;;;13.40;99.90;;;;;;5093953;28;20020;-95
2023/08/02 04:55:40;;;;;;;0.15;0.15;;;13.40;99.90;;;;;;5094127;28;20031;-95
2023/08/02 04:58:06;;;;;;;0.38;0.20;;;13.40;99.90;;;;;;5095387;28;20115;-95
2023/08/02 05:00:32;;;;;;;0.30;0.20;;;13.40;99.90;;;;;;5096640;28;20085;-95
2023/08/02 05:02:57;;;;;;;0.20;0.20;;;13.50;99.90;;;;;;5101966;28;20481;-95
2023/08/02 05:05:24;;;;;;;0.15;0.10;;;13.50;99.90;;;;;;5112654;28;20035;-93
2023/08/02 05:07:49;;;;;;;1.75;0.15;;;13.40;99.90;;;;;;5114996;28;20036;-94
2023/08/02 05:10:15;;;;;;;0.32;0.20;;;13.40;99.90;;;;;;5109171;28;20027;-96
2023/08/02 05:12:42;;;;;;;0.75;0.40;;;13.40;99.90;;;;;;5109343;28;20050;-95
2023/08/02 05:15:08;;;;;;;0.10;0.10;;;13.50;99.90;;;;;;5106309;28;20023;-95
2023/08/02 05:17:33;;;;;;;0.10;0.10;;;13.50;99.90;;;;;;5106368;28;20032;-95
2023/08/02 05:19:59;;;;;;;0.43;0.20;;;13.50;99.90;;;;;;5098950;28;20020;-96
2023/08/02 05:22:25;;;;;;;0.35;0.30;;;13.50;99.90;;;;;;5098372;28;20097;-94
2023/08/02 05:24:54;;;;;;;0.95;0.20;;;13.50;99.90;;;;;;5128411;27;20165;-94
2023/08/02 05:27:20;;;;;;;0.30;0.20;;;13.50;99.90;;;;;;5093702;28;20047;-95
2023/08/02 05:29:45;;;;;;;0.30;0.20;;;13.50;99.90;;;;;;5094269;28;20024;-94
2023/08/02 05:32:11;;;;;;;0.20;0.20;;;13.50;99.90;;;;;;5093788;28;20572;-95
2023/08/02 05:34:37;;;;;;;1.90;0.40;;;13.50;99.90;;;;;;5093794;28;20032;-94
2023/08/02 05:37:02;;;;;;;0.50;0.22;;;13.50;99.90;;;;;;5092512;28;20016;-94
2023/08/02 05:39:28;;;;;;;1.25;0.10;;;13.60;99.90;;;;;;5126751;27;20057;-94
2023/08/02 05:41:54;;;;;;;3.15;0.20;;;13.50;99.90;;;;;;5093110;28;20039;-95
2023/08/02 05:44:19;;;;;;;0.55;0.20;;;13.50;99.90;;;;;;5092389;28;20099;-94
2023/08/02 05:46:45;;;;;;;0.82;0.15;;;13.50;99.90;;;;;;5093015;28;20027;-95
2023/08/02 05:49:11;;;;;;;0.10;0.10;;;13.50;99.90;;;;;;5093109;28;20098;-94
2023/08/02 05:51:36;;;;;;;1.65;0.30;;;13.50;99.90;;;;;;5092898;28;20069;-94
2023/08/02 05:54:02;;;;;;;0.20;0.20;;;13.60;99.90;;;;;;5092924;28;20036;-93
2023/08/02 05:56:27;;;;;;;0.15;0.10;;;13.50;99.90;;;;;;5126385;27;20058;-94
2023/08/02 05:58:53;;;;;;;0.45;0.10;;;13.50;99.90;;;;;;5092457;28;20190;-94
2023/08/02 06:01:18;;;;;;;0.28;0.20;;;13.50;99.90;;;;;;5092696;28;20020;-94
2023/08/02 06:03:44;;;;;;;0.20;0.10;;;13.50;99.90;;;;;;5092296;28;20036;-95
2023/08/02 06:06:10;;;;;;;0.10;0.10;;;13.50;99.90;;;;;;5092433;28;20389;-94
2023/08/02 06:08:36;;;;;;;0.65;0.10;;;13.50;99.90;;;;;;5092369;28;20546;-94
2023/08/02 06:11:02;;;;;;;0.28;0.10;;;13.50;99.90;;;;;;5092253;28;20031;-93
2023/08/02 06:13:29;;;;;;;0.43;0.10;;;13.50;99.90;;;;;;5126044;27;20024;-94
2023/08/02 06:15:55;;;;;;;0.20;0.10;;;13.50;99.90;;;;;;5092425;28;20027;-95
2023/08/02 06:18:20;;;;;;;0.40;0.32;;;13.50;99.90;;;;;;5093532;28;20020;-96
2023/08/02 06:20:46;;;;;;;0.10;0.10;;;13.50;99.90;;;;;;5100991;28;20028;-95
2023/08/02 06:23:12;;;;;;;3.97;0.13;;;13.50;99.90;;;;;;5097036;28;20244;-96
2023/08/02 06:25:37;;;;;;;0.10;0.10;;;13.50;99.90;;;;;;5093245;28;20023;-94
2023/08/02 06:28:03;;;;;;;0.40;0.10;;;13.50;99.90;;;;;;5093285;28;20020;-95
2023/08/02 06:30:29;;;;;;;0.85;0.17;;;13.50;99.90;;;;;;5127169;27;20055;-95
2023/08/02 06:32:54;;;;;;;0.13;0.00;;;13.50;99.90;;;;;;5092367;28;20024;-95
2023/08/02 06:35:20;;;;;;;0.63;0.10;;;13.50;99.90;;;;;;5092802;28;20028;-94
2023/08/02 06:37:46;;;;;;;0.75;0.30;;;13.50;99.90;;;;;;5094912;28;20031;-95
2023/08/02 06:40:12;;;;;;;0.63;0.40;;;13.50;99.90;;;;;;5093257;28;20032;-95
2023/08/02 06:42:37;;;;;;;0.13;0.10;;;13.50;99.90;;;;;;5092805;28;20081;-95
2023/08/02 06:45:04;;;;;;;0.65;0.13;;;13.50;99.90;;;;;;5092698;28;20021;-95
2023/08/02 06:47:30;;;;;;;0.50;0.20;;;13.50;99.90;;;;;;5125664;28;20562;-94
2023/08/02 06:49:56;;;;;;;0.10;0.10;;;13.50;99.90;;;;;;5093245;28;20056;-94
2023/08/02 06:52:21;;;;;;;0.95;0.28;;;13.60;99.90;;;;;;5096192;28;20128;-95
2023/08/02 06:54:51;;;;;;;0.90;0.15;;;13.60;99.90;;;;;;5096213;28;20067;-94
2023/08/02 06:57:17;;;;;;;0.10;0.10;;;13.60;99.90;;;;;;5096096;28;20059;-94
2023/08/02 06:59:43;;;;;;;0.85;0.28;;;13.60;99.90;;;;;;5096508;28;20472;-95
2023/08/02 07:02:09;;;;;;;0.60;0.20;;;13.70;99.90;;;;;;5095940;28;20439;-93
2023/08/02 07:04:34;;;;;;;0.28;0.10;;;13.70;99.90;;;;;;5129891;27;20054;-95
2023/08/02 07:07:00;;;;;;;1.75;0.10;;;13.70;99.90;;;;;;5098716;28;20084;-95
2023/08/02 07:09:29;;;;;;;0.32;0.10;;;13.70;99.90;;;;;;5095924;28;20021;-95
2023/08/02 07:11:55;;;;;;;0.22;0.22;;;13.70;99.90;;;;;;5095544;28;20127;-95
2023/08/02 07:14:21;;;;;;;0.45;0.20;;;13.80;99.90;;;;;;5096348;28;20136;-94
2023/08/02 07:16:47;;;;;;;0.60;0.15;;;13.80;99.90;;;;;;5096171;28;20024;-94
2023/08/02 07:19:12;;;;;;;0.10;0.10;;;13.80;99.90;;;;;;5095948;28;20084;-94
2023/08/02 07:21:39;;;;;;;0.22;0.00;;;13.80;99.90;;;;;;5096432;28;20598;-94
2023/08/02 07:24:05;;;;;;;0.20;0.10;;;13.90;99.90;;;;;;5097697;28;20032;-94
2023/08/02 07:26:30;;;;;;;0.47;0.10;;;13.90;99.90;;;;;;5095957;28;20043;-94
2023/08/02 07:28:56;;;;;;;0.05;0.05;;;13.90;99.90;;;;;;5095403;28;20050;-94
2023/08/02 07:31:22;;;;;;;0.98;0.10;;;13.90;99.90;;;;;;5095983;28;20119;-94
2023/08/02 07:33:47;;;;;;;0.93;0.20;;;13.90;99.90;;;;;;5095646;28;20024;-94
2023/08/02 07:36:19;;;;;;;0.80;0.10;;;13.90;99.90;;;;;;5095526;28;20016;-94
2023/08/02 07:38:46;;;;;;;0.90;0.10;;;14.00;99.90;;;;;;5095533;28;20512;-93
2023/08/02 07:41:12;;;;;;;0.47;0.10;;;14.00;99.90;;;;;;5094909;28;20038;-93
2023/08/02 07:43:37;;;;;;;2.95;0.10;;;14.00;99.90;;;;;;5095428;28;20190;-93
2023/08/02 07:46:03;;;;;;;0.30;0.10;;;14.00;99.90;;;;;;5096065;28;20048;-92
2023/08/02 07:48:29;;;;;;;0.50;0.20;;;14.00;99.90;;;;;;5095859;28;20032;-93
2023/08/02 07:50:54;;;;;;;1.65;0.15;;;14.10;99.90;;;;;;5095991;28;20111;-94
2023/08/02 07:53:20;;;;;;;0.20;0.10;;;14.10;99.90;;;;;;5129813;27;20400;-95
2023/08/02 07:55:48;;;;;;;2.28;0.17;;;14.10;99.90;;;;;;5095016;28;20028;-94
2023/08/02 07:58:13;;;;;;;0.20;0.00;;;14.10;99.90;;;;;;5095383;28;20028;-93
2023/08/02 08:00:39;;;;;;;0.05;0.05;;;14.20;99.90;;;;;;5095219;28;20059;-93
2023/08/02 08:03:05;;;;;;;0.20;0.10;;;14.20;99.90;;;;;;5095609;28;20032;-94
2023/08/02 08:05:30;;;;;;;2.05;0.15;;;14.20;99.90;;;;;;5095750;28;20020;-94
2023/08/02 08:07:56;;;;;;;0.10;0.10;;;14.30;99.90;;;;;;5099684;28;20082;-93
2023/08/02 08:10:22;;;;;;;0.10;0.10;;;14.30;99.90;;;;;;5143410;27;20031;-94
2023/08/02 08:12:47;;;;;;;0.17;0.17;;;14.30;99.90;;;;;;5105144;28;20496;-95
2023/08/02 08:15:13;;;;;;;0.30;0.20;;;14.30;99.90;;;;;;5100398;28;20020;-94
2023/08/02 08:17:39;;;;;;;0.60;0.20;;;14.40;99.90;;;;;;5098418;28;20055;-93
2023/08/02 08:20:05;;;;;;;0.20;0.20;;;14.50;99.90;;;;;;5096871;28;20020;-92
2023/08/02 08:22:31;;;;;;;0.77;0.10;;;14.50;99.90;;;;;;5097049;28;20032;-94
2023/08/02 08:24:57;;;;;;;2.05;0.13;;;14.50;99.90;;;;;;5095546;28;20085;-94
2023/08/02 08:27:23;;;;;;;0.20;0.20;;;14.60;99.90;;;;;;5095804;28;20036;-93
2023/08/02 08:29:49;;;;;;;2.28;0.22;;;14.60;99.90;;;;;;5095578;28;20020;-95
2023/08/02 08:32:16;;;;;;;0.30;0.15;;;14.60;99.90;;;;;;5095101;28;20504;-94
2023/08/02 08:34:42;;;;;;;0.10;0.00;;;14.70;99.90;;;;;;5094939;28;20028;-94
2023/08/02 08:37:08;;;;;;;0.10;0.10;;;14.70;99.90;;;;;;5095107;28;20021;-93
2023/08/02 08:39:38;;;;;;;0.10;0.10;;;14.80;99.90;;;;;;5095339;28;20048;-93
2023/08/02 08:42:08;;;;;;;0.13;0.10;;;14.80;99.90;;;;;;5094402;28;20024;-93
2023/08/02 08:44:37;;;;;;;0.38;0.20;;;14.90;99.90;;;;;;5128968;27;20489;-94
2023/08/02 08:47:06;;;;;;;0.63;0.30;;;15.00;99.90;;;;;;5094839;28;20016;-93
2023/08/02 08:49:32;;;;;;;0.10;0.10;;;15.10;99.90;;;;;;5096506;28;20036;-95
2023/08/02 08:52:00;;;;;;;0.38;0.17;;;15.20;99.90;;;;;;5096467;28;20434;-94
2023/08/02 08:54:28;;;;;;;0.10;0.10;;;15.20;99.90;;;;;;5098254;28;20028;-94
2023/08/02 08:56:55;;;;;;;0.57;0.10;;;15.30;99.90;;;;;;5107382;28;20081;-92
2023/08/02 08:59:22;;;;;;;0.30;0.17;;;15.30;99.90;;;;;;5151707;27;20043;-92
2023/08/02 09:01:48;;;;;;;0.28;0.20;;;15.30;99.90;;;;;;5135508;27;20030;-93
2023/08/02 09:04:14;;;;;;;0.50;0.20;;;15.40;99.90;;;;;;5126746;28;20213;-94
2023/08/02 09:06:39;;;;;;;0.00;0.00;;;15.50;99.90;;;;;;5114611;28;20026;-94
2023/08/02 09:09:05;;;;;;;0.20;0.10;;;15.60;99.90;;;;;;5114690;28;20039;-93
2023/08/02 09:11:31;;;;;;;0.22;0.08;;;15.70;99.90;;;;;;5128123;27;20025;-92
2023/08/02 09:14:13;;;;;;;0.45;0.30;;;15.80;99.90;;;;;;5134395;27;20034;-93
2023/08/02 09:16:57;;;;;;;0.00;0.00;;;15.90;99.90;;;;;;5134958;27;20015;-93
2023/08/02 09:19:34;;;;;;;0.03;0.03;;;16.00;99.90;;;;;;5134504;27;20046;-93
2023/08/02 09:22:12;;;;;;;0.13;0.10;;;16.00;99.90;;;;;;5117621;27;20054;-94
2023/08/02 09:24:39;;;;;;;0.10;0.10;;;16.10;99.90;;;;;;5114183;28;20035;-94
2023/08/02 09:27:10;;;;;;;1.17;0.05;;;16.20;99.90;;;;;;5114998;28;20016;-91
2023/08/02 09:29:52;;;;;;;0.52;0.20;;;16.20;99.90;;;;;;5117174;28;20087;-93
2023/08/02 09:32:19;;;;;;;0.10;0.08;;;16.30;99.90;;;;;;5138099;27;20027;-93
2023/08/02 09:34:45;;;;;;;0.05;0.00;;;16.40;99.90;;;;;;5139232;27;20267;-93
2023/08/02 09:37:13;;;;;;;0.32;0.10;;;16.60;99.90;;;;;;5138282;27;20032;-93
2023/08/02 09:39:39;;;;;;;0.22;0.10;;;16.70;99.90;;;;;;5134936;27;20134;-93
2023/08/02 09:42:14;;;;;;;2.03;0.20;;;16.90;99.90;;;;;;5134159;27;20031;-93
2023/08/02 09:44:55;;;;;;;0.05;0.03;;;17.00;99.90;;;;;;5126941;27;20061;-93
2023/08/02 09:47:21;;;;;;;0.00;0.00;;;17.20;99.90;;;;;;5123892;27;20031;-94
2023/08/02 09:50:09;;;;;;;0.75;0.10;;;17.30;99.90;;;;;;5128890;27;20032;-94
2023/08/02 09:52:36;;;;;;;0.10;0.10;;;17.30;99.90;;;;;;5119676;27;20468;-93
2023/08/02 09:55:02;;;;;;;0.10;0.10;;;17.40;99.90;;;;;;5126532;27;20054;-93
2023/08/02 09:57:30;;;;;;;0.08;0.05;;;17.40;99.90;;;;;;5136627;27;20038;-93
2023/08/02 10:00:07;;;;;;;0.03;0.00;;;17.50;99.90;;;;;;5131929;27;20015;-94
2023/08/02 10:02:35;;;;;;;0.10;0.10;;;17.50;99.90;;;;;;5125704;27;20042;-93
2023/08/02 10:05:02;;;;;;;0.30;0.13;;;17.60;99.90;;;;;;5128082;27;20411;-94
2023/08/02 10:07:34;;;;;;;0.00;0.00;;;17.60;99.90;;;;;;5124486;27;20023;-92
2023/08/02 10:10:05;;;;;;;0.40;0.10;;;17.70;99.90;;;;;;5122517;27;20024;-91
2023/08/02 10:12:34;;;;;;;0.45;0.20;;;17.80;99.90;;;;;;5103156;28;20038;-93
2023/08/02 10:15:01;;;;;;;0.28;0.10;;;17.90;99.90;;;;;;5121627;27;20028;-93
2023/08/02 10:17:27;;;;;;;0.10;0.10;;;17.90;99.90;;;;;;5104491;28;20072;-92
2023/08/02 10:19:53;;;;;;;0.13;0.10;;;17.90;99.90;;;;;;5104934;28;20030;-91
2023/08/02 10:22:19;;;;;;;0.17;0.10;;;17.90;99.90;;;;;;5103415;28;20066;-92
2023/08/02 10:24:46;;;;;;;3.40;0.50;;;18.00;99.90;;;;;;5105716;28;20066;-93
2023/08/02 10:27:13;;;;;;;2.67;0.57;;;18.00;99.90;;;;;;5100216;28;20511;-92
2023/08/02 10:29:40;;;;;;;0.60;0.55;;;18.10;99.90;;;;;;5120234;27;20020;-92
2023/08/02 10:32:13;;;;;;;1.50;0.70;;;18.10;99.90;;;;;;5103127;28;20019;-93
2023/08/02 10:34:39;;;;;;;1.98;0.50;;;18.10;99.90;;;;;;5102554;28;20023;-92
2023/08/02 10:37:05;;;;;;;4.68;2.40;;;18.20;99.90;;;;;;5100216;28;20022;-90
2023/08/02 10:39:46;;;;;;;5.60;1.90;;;18.20;99.90;;;;;;5101166;28;20039;-91
2023/08/02 10:42:19;;;;;;;5.10;1.40;;;18.10;99.90;;;;;;5103328;28;20119;-90
2023/08/02 10:44:57;;;;;;;4.95;1.50;;;18.10;99.90;;;;;;5103716;28;20027;-91
2023/08/02 10:47:28;;;;;;;5.65;1.90;;;18.00;99.90;;;;;;5103484;28;20020;-91
2023/08/02 10:49:55;;;;;;;3.50;2.00;;;17.90;99.90;;;;;;5101814;28;20085;-94
2023/08/02 10:52:34;;;;;;;4.07;1.95;;;17.80;99.90;;;;;;5102869;28;20480;-92
2023/08/02 10:55:08;;;;;;;5.28;2.00;;;17.80;99.90;;;;;;5100257;28;20027;-91
2023/08/02 10:57:35;;;;;;;3.08;1.50;;;17.70;99.90;;;;;;5102740;28;20020;-91
2023/08/02 11:00:14;;;;;;;2.70;1.20;;;17.70;99.90;;;;;;5101134;28;20035;-93
2023/08/02 11:02:46;;;;;;;4.05;1.50;;;17.70;99.90;;;;;;5110659;28;20461;-92
2023/08/02 11:05:12;;;;;;;3.40;1.13;;;17.80;99.90;;;;;;5106402;28;20024;-91
2023/08/02 11:07:37;;;;;;;1.67;0.80;;;17.90;99.90;;;;;;5102299;28;20122;-91
2023/08/02 11:10:06;;;;;;;2.53;0.82;;;18.00;99.90;;;;;;5106521;28;20016;-91
2023/08/02 11:12:33;;;;;;;2.88;0.73;;;18.20;99.90;;;;;;5125006;28;20032;-92
2023/08/02 11:14:59;;;;;;;1.08;0.50;;;18.30;99.90;;;;;;5120410;28;20011;-91
2023/08/02 11:17:25;;;;;;;2.60;0.80;;;18.50;99.90;;;;;;5130032;28;20027;-91
2023/08/02 11:19:53;;;;;;;0.75;0.63;;;18.70;99.90;;;;;;5103698;28;20012;-90
2023/08/02 11:22:19;;;;;;;0.43;0.35;;;18.70;99.90;;;;;;5103357;28;20488;-89
2023/08/02 11:24:53;;;;;;;1.33;0.57;;;18.80;99.90;;;;;;5094718;28;20016;-90
2023/08/02 11:27:24;;;;;;;0.45;0.30;;;18.80;99.90;;;;;;5101892;28;20016;-90
2023/08/02 11:30:00;;;;;;;0.82;0.40;;;18.70;99.90;;;;;;5103649;28;20032;-90
2023/08/02 11:32:27;;;;;;;0.60;0.32;;;18.60;99.90;;;;;;5103458;28;20477;-89
2023/08/02 11:34:53;;;;;;;1.52;0.60;;;18.50;99.90;;;;;;5123835;28;20338;-91
2023/08/02 11:37:19;;;;;;;2.17;0.60;;;18.50;99.90;;;;;;5104845;28;20050;-92
2023/08/02 11:39:54;;;;;;;3.03;0.50;;;18.30;99.90;;;;;;5110752;27;20133;-93
2023/08/02 11:42:21;;;;;;;2.90;1.08;;;18.30;99.90;;;;;;5117803;28;20362;-91
2023/08/02 11:44:46;;;;;;;6.35;0.82;;;18.20;99.90;;;;;;5117949;28;20024;-90
2023/08/02 11:47:12;;;;;;;2.60;0.90;;;18.20;99.90;;;;;;5120737;28;20042;-95
2023/08/02 11:49:57;;;;;;;1.90;0.80;;;18.20;99.90;;;;;;5120303;28;20035;-95
2023/08/02 11:52:33;;;;;;;2.03;0.70;;;18.20;99.90;;;;;;5118296;28;20027;-96
2023/08/02 11:55:00;;;;;;;2.15;0.68;;;18.20;99.90;;;;;;5117246;28;20028;-95
2023/08/02 11:57:26;;;;;;;1.00;0.88;;;18.30;99.90;;;;;;5116283;28;20118;-94
2023/08/02 11:59:56;;;;;;;0.73;0.60;;;18.40;99.90;;;;;;5116166;28;20444;-95
2023/08/02 12:02:29;;;;;;;2.90;0.90;;;18.40;99.90;;;;;;5116510;28;20133;-94
2023/08/02 12:04:55;;;;;;;1.70;0.60;;;18.50;99.90;;;;;;5116043;28;20366;-95
2023/08/02 12:07:25;;;;;;;1.00;0.65;;;18.50;99.90;;;;;;5115605;28;20484;-95
2023/08/02 12:09:51;;;;;;;2.67;0.88;;;18.40;99.90;;;;;;5115606;28;20027;-95
2023/08/02 12:12:17;;;;;;;2.97;0.68;;;18.30;99.90;;;;;;5115859;28;20198;-95
2023/08/02 12:14:43;;;;;;;1.15;0.57;;;18.20;99.90;;;;;;5115352;28;20023;-94
2023/08/02 12:17:16;;;;;;;1.92;0.70;;;18.10;99.90;;;;;;5114904;28;20384;-94
2023/08/02 12:19:42;;;;;;;1.00;0.77;;;18.00;99.90;;;;;;5115408;28;20260;-94
2023/08/02 12:22:08;;;;;;;3.85;1.00;;;18.00;99.90;;;;;;5114945;28;20100;-94
2023/08/02 12:24:33;;;;;;;0.52;0.52;;;18.00;99.90;;;;;;5115232;28;20062;-96
2023/08/02 12:27:16;;;;;;;3.17;0.98;;;18.10;99.90;;;;;;5115426;28;20039;-94
2023/08/02 12:29:43;;;;;;;0.73;0.73;;;18.10;99.90;;;;;;5123405;28;20020;-95
2023/08/02 12:32:26;;;;;;;2.33;1.00;;;18.10;99.90;;;;;;5127396;28;20038;-94
2023/08/02 12:34:52;;;;;;;1.63;1.02;;;18.10;99.90;;;;;;5117524;28;20054;-95
2023/08/02 12:37:18;;;;;;;1.65;1.00;;;18.10;99.90;;;;;;5115747;28;20035;-94
2023/08/02 12:39:44;;;;;;;0.80;0.80;;;18.10;99.90;;;;;;5115541;28;20104;-94
2023/08/02 12:42:10;;;;;;;2.72;1.20;;;18.00;99.90;;;;;;5115215;28;20099;-95
2023/08/02 12:44:36;;;;;;;2.13;1.08;;;18.00;99.90;;;;;;5115020;28;20087;-95
2023/08/02 12:47:01;;;;;;;1.05;0.93;;;17.90;99.90;;;;;;5114983;28;20477;-95